Time;durP1;ratioP1;P1;durP2;ratioP2;P2;SDS_P1;SDS_P2;PMS_P1;PMS_P2;Temp;Humidity;BMP_temperature;BMP_pressure;BME280_temperature;BME280_humidity;BME280_pressure;Samples;Min_cycle;Max_cycle;Signal;HPM_P1;HPM_P2
2022/01/20 00:01:10;;;;;;;18.70;2.30;;;7.80;99.90;;;;;;4849512;29;39532;-80
2022/01/20 00:03:40;;;;;;;16.40;2.53;;;7.30;99.90;;;;;;4847785;29;48935;-79
2022/01/20 00:27:35;;;;;;;20.93;2.47;;;6.90;99.90;;;;;;4842132;29;48688;-79
2022/01/20 00:37:14;;;;;;;21.77;2.73;;;7.30;99.90;;;;;;4848527;29;49131;-79
2022/01/20 00:38:17;;;;;;;21.27;2.67;;;7.50;99.90;;;;;;4849102;29;37058;-78
2022/01/20 00:40:43;;;;;;;17.97;3.00;;;7.50;99.90;;;;;;4846986;29;39763;-79
2022/01/20 00:43:09;;;;;;;16.73;2.40;;;7.50;99.90;;;;;;4847364;29;39599;-79
2022/01/20 00:45:35;;;;;;;17.27;3.33;;;7.50;99.90;;;;;;4857545;29;38469;-78
2022/01/20 00:48:01;;;;;;;14.93;2.57;;;7.50;99.90;;;;;;4847324;29;36357;-78
2022/01/20 00:50:27;;;;;;;17.33;2.93;;;7.40;99.90;;;;;;4849539;29;38761;-79
2022/01/20 00:52:53;;;;;;;12.73;2.50;;;7.40;99.90;;;;;;4846089;29;39052;-78
2022/01/20 00:55:20;;;;;;;20.67;2.97;;;7.50;99.90;;;;;;4846993;29;38604;-78
2022/01/20 00:57:46;;;;;;;22.17;3.03;;;7.50;99.90;;;;;;4842441;29;36169;-79
2022/01/20 01:00:14;;;;;;;22.77;2.73;;;7.50;99.90;;;;;;4847673;29;38409;-79
2022/01/20 01:02:40;;;;;;;20.60;3.07;;;7.60;99.90;;;;;;4846576;29;39277;-79
2022/01/20 01:05:09;;;;;;;17.70;2.90;;;7.60;99.90;;;;;;4845755;29;39482;-78
2022/01/20 01:07:45;;;;;;;13.07;2.60;;;7.50;99.90;;;;;;4849906;29;36165;-79
2022/01/20 01:10:15;;;;;;;24.53;2.97;;;7.50;99.90;;;;;;4848771;29;38194;-78
2022/01/20 01:12:51;;;;;;;15.70;2.97;;;7.60;99.90;;;;;;4846294;29;37553;-79
2022/01/20 01:15:22;;;;;;;18.83;2.30;;;7.60;99.90;;;;;;4848965;29;39321;-79
2022/01/20 01:21:07;;;;;;;14.57;2.80;;;7.60;99.90;;;;;;4849988;29;47896;-79
2022/01/20 01:23:21;;;;;;;18.77;2.60;;;7.70;99.90;;;;;;4844718;29;38641;-78
2022/01/20 01:25:47;;;;;;;19.33;2.80;;;7.60;99.90;;;;;;4860938;29;37242;-79
2022/01/20 01:28:13;;;;;;;18.67;2.43;;;7.60;99.90;;;;;;4846934;29;38157;-80
2022/01/20 01:31:12;;;;;;;12.47;2.23;;;7.60;99.90;;;;;;4858213;29;38168;-79
2022/01/20 01:33:35;;;;;;;12.70;1.83;;;7.60;99.90;;;;;;4848583;29;48364;-79
2022/01/20 01:36:03;;;;;;;10.90;2.10;;;7.50;99.90;;;;;;4842946;29;38809;-78
2022/01/20 01:38:36;;;;;;;10.33;1.53;;;7.30;99.90;;;;;;4847965;29;36410;-79
2022/01/20 01:41:12;;;;;;;6.77;1.40;;;7.30;99.90;;;;;;4840672;29;39707;-80
2022/01/20 01:43:41;;;;;;;17.67;1.60;;;7.20;99.90;;;;;;4847795;29;39696;-79
2022/01/20 01:46:08;;;;;;;7.07;1.67;;;7.10;99.90;;;;;;4847416;29;37638;-78
2022/01/20 01:48:35;;;;;;;8.70;1.27;;;7.00;99.90;;;;;;4845714;29;36188;-79
2022/01/20 01:51:01;;;;;;;14.93;2.40;;;6.90;99.90;;;;;;4846973;29;39002;-79
2022/01/20 01:53:27;;;;;;;11.83;1.93;;;6.90;99.90;;;;;;4846385;29;47157;-79
2022/01/20 01:55:54;;;;;;;12.87;2.03;;;6.80;99.90;;;;;;4845099;29;37443;-79
2022/01/20 01:58:20;;;;;;;19.83;2.90;;;7.00;99.90;;;;;;4848430;29;38068;-79
2022/01/20 02:00:46;;;;;;;10.53;1.77;;;7.10;99.90;;;;;;4845646;29;38589;-79
2022/01/20 02:03:15;;;;;;;19.87;2.53;;;7.10;99.90;;;;;;4855237;29;37254;-79
2022/01/20 02:08:33;;;;;;;24.13;2.87;;;7.20;99.90;;;;;;4846665;29;49408;-79
2022/01/20 02:19:15;;;;;;;24.10;3.10;;;7.40;99.90;;;;;;4846768;29;38806;-79
2022/01/20 02:22:02;;;;;;;21.40;3.10;;;7.50;99.90;;;;;;4843821;29;38487;-79
2022/01/20 02:24:30;;;;;;;27.87;3.90;;;7.50;99.90;;;;;;4850154;29;48543;-81
2022/01/20 02:26:57;;;;;;;19.83;3.13;;;7.70;99.90;;;;;;4845573;29;38892;-79
2022/01/20 02:29:23;;;;;;;16.03;3.47;;;7.90;99.90;;;;;;4845024;29;37337;-79
2022/01/20 02:31:58;;;;;;;23.57;3.33;;;7.80;99.90;;;;;;4842742;29;38621;-79
2022/01/20 02:34:28;;;;;;;19.70;2.70;;;7.80;99.90;;;;;;4849587;29;42392;-78
2022/01/20 02:36:56;;;;;;;20.73;3.20;;;7.80;99.90;;;;;;4843406;29;39046;-79
2022/01/20 02:44:54;;;;;;;19.63;2.93;;;7.60;99.90;;;;;;4846839;29;49233;-79
2022/01/20 02:47:30;;;;;;;24.47;3.57;;;7.50;99.90;;;;;;4842894;29;38105;-79
2022/01/20 02:49:56;;;;;;;18.83;2.90;;;7.60;99.90;;;;;;4847731;29;37119;-79
2022/01/20 02:52:24;;;;;;;21.27;2.93;;;7.60;99.90;;;;;;4846328;29;38467;-78
2022/01/20 02:54:50;;;;;;;22.57;3.67;;;7.60;99.90;;;;;;4854939;29;38940;-79
2022/01/20 02:57:17;;;;;;;25.40;3.33;;;7.60;99.90;;;;;;4855640;29;41506;-78
2022/01/20 02:59:44;;;;;;;21.33;3.30;;;7.50;99.90;;;;;;4845124;29;37738;-79
2022/01/20 03:02:10;;;;;;;28.33;4.27;;;7.50;99.90;;;;;;4842331;29;39407;-79
2022/01/20 03:04:38;;;;;;;25.03;3.27;;;7.50;99.90;;;;;;4847885;29;38694;-79
2022/01/20 03:07:04;;;;;;;24.70;3.17;;;7.50;99.90;;;;;;4842563;28;37983;-79
2022/01/20 03:09:31;;;;;;;22.43;3.07;;;7.50;99.90;;;;;;4845909;29;38004;-79
2022/01/20 03:11:58;;;;;;;21.80;3.07;;;7.40;99.90;;;;;;4844325;29;37232;-79
2022/01/20 03:14:24;;;;;;;24.47;3.57;;;7.40;99.90;;;;;;4844308;29;39009;-79
2022/01/20 03:16:51;;;;;;;26.23;3.30;;;7.40;99.90;;;;;;4850153;29;38596;-79
2022/01/20 03:19:17;;;;;;;27.93;3.63;;;7.40;99.90;;;;;;4857829;29;36302;-79
2022/01/20 03:21:44;;;;;;;19.57;3.13;;;7.50;99.90;;;;;;4843396;29;38916;-79
2022/01/20 03:24:11;;;;;;;26.87;3.70;;;7.50;99.90;;;;;;4845276;29;38391;-79
2022/01/20 03:26:38;;;;;;;29.73;3.87;;;7.40;99.90;;;;;;4843464;29;38284;-79
2022/01/20 03:29:06;;;;;;;23.93;3.70;;;7.40;99.90;;;;;;4847851;29;37264;-79
2022/01/20 03:31:32;;;;;;;28.07;3.70;;;7.20;99.90;;;;;;4846858;29;39648;-79
2022/01/20 03:33:59;;;;;;;30.03;5.70;;;7.20;99.90;;;;;;4850673;29;38830;-79
2022/01/20 03:36:26;;;;;;;26.33;3.60;;;7.20;99.90;;;;;;4842738;29;38801;-79
2022/01/20 03:38:52;;;;;;;34.17;4.37;;;7.30;99.90;;;;;;4849532;29;36913;-79
2022/01/20 03:41:19;;;;;;;27.60;4.00;;;7.30;99.90;;;;;;4849641;29;38504;-80
2022/01/20 03:43:46;;;;;;;23.40;4.90;;;7.50;99.90;;;;;;4847500;29;39080;-80
2022/01/20 03:46:13;;;;;;;30.70;3.90;;;7.60;99.90;;;;;;4848186;29;39424;-78
2022/01/20 03:49:02;;;;;;;26.03;4.50;;;7.60;99.90;;;;;;4846784;29;36035;-79
2022/01/20 03:51:28;;;;;;;23.07;3.80;;;7.50;99.90;;;;;;4858389;29;47324;-81
2022/01/20 03:53:55;;;;;;;29.33;3.90;;;7.60;99.90;;;;;;4850053;29;38243;-79
2022/01/20 03:56:22;;;;;;;22.53;3.07;;;7.60;99.90;;;;;;4862368;29;38433;-79
2022/01/20 03:58:50;;;;;;;24.63;4.77;;;7.50;99.90;;;;;;4850235;29;37691;-79
2022/01/20 04:01:18;;;;;;;16.93;3.07;;;7.50;99.90;;;;;;4844886;29;38078;-79
2022/01/20 04:03:44;;;;;;;27.00;4.10;;;7.50;99.90;;;;;;4849148;29;38438;-78
2022/01/20 04:06:11;;;;;;;20.00;3.43;;;7.40;99.90;;;;;;4849267;29;39132;-79
2022/01/20 04:08:46;;;;;;;13.93;2.00;;;7.30;99.90;;;;;;4850991;29;35718;-80
2022/01/20 04:11:26;;;;;;;13.27;2.30;;;6.80;99.90;;;;;;4859597;29;38721;-78
2022/01/20 04:13:53;;;;;;;12.93;2.30;;;6.50;99.90;;;;;;4862534;29;38683;-79
2022/01/20 04:16:23;;;;;;;18.70;2.23;;;6.40;99.90;;;;;;4844352;29;37445;-77
2022/01/20 04:18:54;;;;;;;10.73;2.10;;;6.40;99.90;;;;;;4863100;29;37159;-77
2022/01/20 04:21:22;;;;;;;10.23;1.50;;;6.30;99.90;;;;;;4848426;29;36713;-78
2022/01/20 04:23:49;;;;;;;10.87;1.47;;;6.30;99.90;;;;;;4846674;29;38682;-78
2022/01/20 04:26:15;;;;;;;7.60;1.97;;;6.20;99.90;;;;;;4844779;29;38135;-77
2022/01/20 04:28:42;;;;;;;19.40;2.13;;;6.20;99.90;;;;;;4864284;29;35920;-78
2022/01/20 04:31:08;;;;;;;9.27;1.60;;;6.20;99.90;;;;;;4855048;29;38904;-77
2022/01/20 04:33:34;;;;;;;13.93;1.60;;;6.20;99.90;;;;;;4848843;29;38706;-78
2022/01/20 04:36:00;;;;;;;16.90;2.20;;;6.20;99.90;;;;;;4847050;29;38448;-78
2022/01/20 04:38:26;;;;;;;13.23;2.07;;;6.30;99.90;;;;;;4851566;29;36894;-78
2022/01/20 04:40:53;;;;;;;13.07;1.97;;;6.30;99.90;;;;;;4848484;29;38996;-78
2022/01/20 04:43:20;;;;;;;14.27;2.10;;;6.30;99.90;;;;;;4846639;29;41362;-78
2022/01/20 04:45:56;;;;;;;13.57;2.10;;;6.30;99.90;;;;;;4850467;29;37450;-77
2022/01/20 04:59:03;;;;;;;20.87;2.57;;;5.80;99.90;;;;;;4847058;29;39490;-77
2022/01/20 05:01:30;;;;;;;9.43;1.37;;;5.70;99.90;;;;;;4845391;29;40947;-77
2022/01/20 05:03:57;;;;;;;17.27;2.10;;;5.80;99.90;;;;;;4846055;29;38876;-78
2022/01/20 05:06:23;;;;;;;14.10;2.97;;;5.80;99.90;;;;;;4839182;29;37514;-77
2022/01/20 05:08:52;;;;;;;17.20;2.70;;;5.80;99.90;;;;;;4847705;29;35831;-77
2022/01/20 05:11:19;;;;;;;15.47;2.43;;;5.80;99.90;;;;;;4849469;29;37706;-77
2022/01/20 05:13:45;;;;;;;19.30;2.90;;;5.70;99.90;;;;;;4859576;29;38761;-77
2022/01/20 05:16:11;;;;;;;21.10;2.50;;;5.60;99.90;;;;;;4843895;29;37693;-76
2022/01/20 05:18:38;;;;;;;23.50;3.40;;;5.60;99.90;;;;;;4847884;29;37070;-78
2022/01/20 05:21:04;;;;;;;28.47;3.30;;;5.60;99.90;;;;;;4854041;29;38808;-77
2022/01/20 05:23:30;;;;;;;28.73;3.90;;;5.60;99.90;;;;;;4855983;29;39687;-78
2022/01/20 05:25:56;;;;;;;27.53;4.53;;;5.60;99.90;;;;;;4845702;29;39247;-77
2022/01/20 05:28:22;;;;;;;23.23;4.27;;;5.60;99.90;;;;;;4845585;29;37555;-77
2022/01/20 05:30:48;;;;;;;18.90;3.43;;;5.60;99.90;;;;;;4844058;29;38887;-77
2022/01/20 05:33:14;;;;;;;33.67;6.83;;;5.70;99.90;;;;;;4846738;29;37546;-77
2022/01/20 05:35:40;;;;;;;32.60;4.43;;;5.60;99.90;;;;;;4847425;29;38310;-77
2022/01/20 05:38:07;;;;;;;36.97;4.33;;;5.60;99.90;;;;;;4857911;29;38066;-77
2022/01/20 05:40:34;;;;;;;33.07;3.83;;;5.60;99.90;;;;;;4844248;29;39863;-77
2022/01/20 05:43:02;;;;;;;42.57;4.57;;;5.50;99.90;;;;;;4847512;29;37647;-77
2022/01/20 05:45:28;;;;;;;32.00;5.53;;;5.50;99.90;;;;;;4847197;29;48794;-77
2022/01/20 05:48:01;;;;;;;30.93;4.37;;;5.50;99.90;;;;;;4846375;29;35070;-77
2022/01/20 05:50:27;;;;;;;35.27;5.40;;;5.40;99.90;;;;;;4844598;29;37611;-77
2022/01/20 05:52:53;;;;;;;30.17;5.83;;;5.50;99.90;;;;;;4845271;28;38953;-77
2022/01/20 05:55:21;;;;;;;45.40;5.40;;;5.50;99.90;;;;;;4845338;28;37997;-76
2022/01/20 05:57:47;;;;;;;32.83;6.17;;;5.60;99.90;;;;;;4846074;29;37665;-77
2022/01/20 06:00:22;;;;;;;39.23;4.60;;;5.70;99.90;;;;;;4845351;29;39079;-77
2022/01/20 06:05:32;;;;;;;32.00;4.27;;;6.00;99.90;;;;;;4845566;29;47876;-77
2022/01/20 06:07:59;;;;;;;21.03;3.10;;;6.10;99.90;;;;;;4840948;29;37658;-76
2022/01/20 06:10:25;;;;;;;26.03;3.33;;;6.10;99.90;;;;;;4843937;29;37621;-77
2022/01/20 06:12:51;;;;;;;17.93;3.33;;;6.10;99.90;;;;;;4847411;28;39414;-78
2022/01/20 06:15:17;;;;;;;20.80;3.53;;;6.10;99.90;;;;;;4841708;29;40049;-76
2022/01/20 06:17:43;;;;;;;16.90;3.97;;;6.10;99.90;;;;;;4840965;29;36112;-79
2022/01/20 06:20:11;;;;;;;18.13;2.90;;;6.00;99.90;;;;;;4839828;29;38606;-78
2022/01/20 06:22:38;;;;;;;22.40;3.50;;;6.10;99.90;;;;;;4842895;29;38546;-77
2022/01/20 06:25:05;;;;;;;16.53;2.50;;;6.20;99.90;;;;;;4863283;29;38679;-76
2022/01/20 06:27:32;;;;;;;13.27;2.27;;;6.20;99.90;;;;;;4838732;29;38202;-77
2022/01/20 06:29:58;;;;;;;15.60;2.30;;;6.00;99.90;;;;;;4838704;29;37170;-77
2022/01/20 06:32:25;;;;;;;17.07;2.73;;;6.00;99.90;;;;;;4838034;29;39526;-77
2022/01/20 06:34:51;;;;;;;13.80;2.20;;;5.90;99.90;;;;;;4843836;29;39221;-77
2022/01/20 06:37:17;;;;;;;14.60;1.93;;;5.90;99.90;;;;;;4843386;29;36362;-77
2022/01/20 06:39:43;;;;;;;17.37;2.73;;;5.90;99.90;;;;;;4842743;29;39026;-76
2022/01/20 06:42:10;;;;;;;18.87;2.30;;;5.90;99.90;;;;;;4854113;28;39731;-77
2022/01/20 06:44:36;;;;;;;13.47;2.23;;;5.90;99.90;;;;;;4844112;29;38583;-77
2022/01/20 06:47:02;;;;;;;22.70;3.60;;;5.90;99.90;;;;;;4844810;29;37079;-77
2022/01/20 06:49:28;;;;;;;13.50;2.93;;;5.80;99.90;;;;;;4845490;29;38462;-77
2022/01/20 06:51:57;;;;;;;13.47;2.47;;;5.70;99.90;;;;;;4856227;29;21347;-76
2022/01/20 06:54:23;;;;;;;15.27;2.03;;;5.70;99.90;;;;;;4846068;29;39592;-77
2022/01/20 06:56:49;;;;;;;20.27;2.27;;;5.70;99.90;;;;;;4840008;29;35883;-78
2022/01/20 06:59:17;;;;;;;14.47;2.10;;;5.80;99.90;;;;;;4842271;29;36979;-76
2022/01/20 07:01:45;;;;;;;13.43;2.50;;;5.80;99.90;;;;;;4851247;29;38957;-77
2022/01/20 07:04:13;;;;;;;22.03;2.60;;;5.70;99.90;;;;;;4857984;29;39177;-76
2022/01/20 07:06:40;;;;;;;21.50;2.90;;;5.60;99.90;;;;;;4847266;29;37612;-77
2022/01/20 07:09:10;;;;;;;16.73;2.80;;;5.70;99.90;;;;;;4839342;29;41034;-76
2022/01/20 07:11:38;;;;;;;18.10;2.13;;;5.60;99.90;;;;;;4839296;29;40018;-77
2022/01/20 07:14:05;;;;;;;18.00;2.47;;;5.60;99.90;;;;;;4840163;29;37350;-76
2022/01/20 07:16:32;;;;;;;14.10;2.20;;;5.70;99.90;;;;;;4845077;29;35915;-79
2022/01/20 07:18:58;;;;;;;17.63;2.47;;;5.80;99.90;;;;;;4845218;29;38839;-75
2022/01/20 07:21:24;;;;;;;16.70;2.40;;;5.90;99.90;;;;;;4842585;29;38689;-76
2022/01/20 07:23:51;;;;;;;16.90;3.00;;;6.00;99.90;;;;;;4841935;29;38660;-76
2022/01/20 07:26:17;;;;;;;22.70;2.90;;;6.10;99.90;;;;;;4840634;29;36356;-76
2022/01/20 07:28:43;;;;;;;23.60;2.30;;;6.10;99.90;;;;;;4855700;29;39627;-77
2022/01/20 07:31:10;;;;;;;13.87;2.43;;;6.20;99.90;;;;;;4839307;29;37497;-76
2022/01/20 07:33:37;;;;;;;20.40;2.90;;;6.20;99.90;;;;;;4845434;29;39311;-77
2022/01/20 07:36:04;;;;;;;20.23;2.10;;;6.10;99.90;;;;;;4843752;29;37287;-76
2022/01/20 07:38:31;;;;;;;7.67;1.70;;;6.10;99.90;;;;;;4848783;29;39835;-77
2022/01/20 07:40:57;;;;;;;16.10;2.17;;;6.10;99.90;;;;;;4844360;29;38683;-76
2022/01/20 07:43:24;;;;;;;13.53;1.73;;;6.10;99.90;;;;;;4842641;29;38428;-76
2022/01/20 07:45:50;;;;;;;11.17;1.77;;;6.20;99.90;;;;;;4841555;29;38832;-76
2022/01/20 07:48:16;;;;;;;19.77;2.60;;;6.20;99.90;;;;;;4840641;29;38558;-77
2022/01/20 07:50:42;;;;;;;11.10;1.70;;;6.10;99.90;;;;;;4844123;29;37908;-77
2022/01/20 07:53:08;;;;;;;19.07;2.53;;;6.00;99.90;;;;;;4843853;29;38692;-77
2022/01/20 07:55:34;;;;;;;12.53;2.80;;;6.00;99.90;;;;;;4843627;29;36334;-77
2022/01/20 07:58:00;;;;;;;13.23;2.13;;;6.00;99.90;;;;;;4846722;29;39676;-77
2022/01/20 08:00:26;;;;;;;17.23;2.23;;;6.10;99.90;;;;;;4841194;29;40747;-78
2022/01/20 08:02:52;;;;;;;11.20;1.93;;;6.00;99.90;;;;;;4841534;29;36790;-77
2022/01/20 08:05:19;;;;;;;17.47;2.90;;;5.80;99.90;;;;;;4841127;29;37187;-76
2022/01/20 08:07:45;;;;;;;18.53;2.77;;;5.70;99.90;;;;;;4839028;29;40078;-78
2022/01/20 08:10:12;;;;;;;13.33;2.53;;;5.70;99.90;;;;;;4841460;29;39251;-77
2022/01/20 08:12:38;;;;;;;9.63;2.37;;;5.80;99.90;;;;;;4841299;29;37559;-77
2022/01/20 08:15:09;;;;;;;17.20;2.83;;;5.90;99.90;;;;;;4844797;29;38147;-76
2022/01/20 08:17:36;;;;;;;23.50;2.80;;;6.00;99.90;;;;;;4848238;29;40758;-77
2022/01/20 08:20:04;;;;;;;14.63;2.33;;;6.00;99.90;;;;;;4845393;29;39837;-78
2022/01/20 08:22:34;;;;;;;14.53;2.83;;;5.90;99.90;;;;;;4857633;29;46946;-77
2022/01/20 08:25:05;;;;;;;19.27;2.47;;;5.90;99.90;;;;;;4846924;29;37714;-77
2022/01/20 08:27:31;;;;;;;18.30;3.00;;;5.90;99.90;;;;;;4816332;29;46424;-77
2022/01/20 08:29:58;;;;;;;16.23;2.40;;;5.90;99.90;;;;;;4848238;29;39138;-76
2022/01/20 08:32:24;;;;;;;18.93;2.37;;;6.00;99.90;;;;;;4844827;29;38998;-77
2022/01/20 08:34:50;;;;;;;20.90;2.97;;;6.00;99.90;;;;;;4843907;29;37785;-77
2022/01/20 08:37:16;;;;;;;18.40;2.20;;;6.10;99.90;;;;;;4842644;29;38636;-76
2022/01/20 08:39:45;;;;;;;21.13;2.83;;;6.20;99.90;;;;;;4847653;29;38445;-77
2022/01/20 08:42:12;;;;;;;19.27;2.93;;;6.20;99.90;;;;;;4857984;29;39871;-77
2022/01/20 08:44:40;;;;;;;15.73;2.73;;;6.20;99.90;;;;;;4846920;29;37146;-77
2022/01/20 08:47:16;;;;;;;16.20;2.87;;;6.20;99.90;;;;;;4846362;29;37042;-76
2022/01/20 08:49:45;;;;;;;17.10;2.27;;;6.40;99.90;;;;;;4843816;29;38483;-76
2022/01/20 08:52:11;;;;;;;22.73;2.93;;;6.40;99.90;;;;;;4847499;29;38723;-77
2022/01/20 08:54:38;;;;;;;17.83;2.57;;;6.50;99.90;;;;;;4850209;29;36910;-77
2022/01/20 08:57:05;;;;;;;15.40;3.20;;;6.50;99.90;;;;;;4838496;29;39428;-76
2022/01/20 08:59:31;;;;;;;17.33;2.73;;;6.60;99.90;;;;;;4866364;29;38781;-77
2022/01/20 09:01:59;;;;;;;20.00;3.30;;;6.60;99.90;;;;;;4855963;29;39024;-78
2022/01/20 09:04:25;;;;;;;19.20;2.87;;;6.60;99.90;;;;;;4848033;29;35912;-78
2022/01/20 09:06:51;;;;;;;12.30;2.10;;;6.60;99.90;;;;;;4862785;29;38516;-79
2022/01/20 09:09:20;;;;;;;14.27;2.83;;;6.50;99.90;;;;;;4861600;29;37979;-78
2022/01/20 09:12:14;;;;;;;15.87;2.40;;;6.30;99.90;;;;;;4848066;29;38137;-78
2022/01/20 09:17:29;;;;;;;18.77;2.77;;;6.20;99.90;;;;;;4851833;29;49474;-79
2022/01/20 09:19:55;;;;;;;19.13;3.27;;;6.30;99.90;;;;;;4850858;29;39512;-78
2022/01/20 09:22:22;;;;;;;19.93;3.80;;;6.40;99.90;;;;;;4849172;28;38516;-78
2022/01/20 09:24:48;;;;;;;21.17;3.83;;;6.50;99.90;;;;;;4847405;29;37249;-79
2022/01/20 09:27:15;;;;;;;16.93;2.93;;;6.40;99.90;;;;;;4845028;28;39255;-78
2022/01/20 09:29:42;;;;;;;20.00;3.03;;;6.50;99.90;;;;;;4846606;29;37427;-80
2022/01/20 09:32:12;;;;;;;15.17;2.77;;;6.60;99.90;;;;;;4864173;29;38251;-78
2022/01/20 09:34:38;;;;;;;21.70;3.93;;;6.70;99.90;;;;;;4862630;29;37054;-77
2022/01/20 09:37:05;;;;;;;16.37;3.10;;;6.80;99.90;;;;;;4852090;29;38417;-78
2022/01/20 09:39:31;;;;;;;21.00;3.17;;;6.80;99.90;;;;;;4849364;29;37886;-78
2022/01/20 09:41:58;;;;;;;18.87;2.47;;;6.80;99.90;;;;;;4851573;29;38844;-79
2022/01/20 09:44:25;;;;;;;14.53;3.23;;;6.70;99.90;;;;;;4848711;29;37832;-79
2022/01/20 09:46:51;;;;;;;19.97;2.97;;;6.60;99.90;;;;;;4848013;29;37901;-78
2022/01/20 09:49:18;;;;;;;22.93;3.03;;;6.70;99.90;;;;;;4851890;29;38887;-79
2022/01/20 09:51:44;;;;;;;19.77;3.03;;;6.80;99.90;;;;;;4846833;29;39778;-77
2022/01/20 09:54:11;;;;;;;20.43;2.53;;;6.90;99.90;;;;;;4853389;29;35969;-78
2022/01/20 09:56:38;;;;;;;17.87;2.80;;;7.00;99.90;;;;;;4850174;29;38958;-78
2022/01/20 09:59:04;;;;;;;18.57;2.50;;;7.00;99.90;;;;;;4849317;29;40151;-78
2022/01/20 10:01:40;;;;;;;18.27;2.40;;;7.10;99.90;;;;;;4846583;29;47754;-78
2022/01/20 10:04:20;;;;;;;24.67;4.17;;;7.00;99.90;;;;;;4857786;29;38421;-81
2022/01/20 10:07:04;;;;;;;13.50;2.43;;;7.00;99.90;;;;;;4854321;29;39373;-80
2022/01/20 10:09:49;;;;;;;18.43;2.20;;;6.90;99.90;;;;;;4855355;29;47107;-79
2022/01/20 10:12:18;;;;;;;15.30;2.33;;;7.00;99.90;;;;;;4857744;29;39195;-79
2022/01/20 10:14:48;;;;;;;13.57;2.10;;;7.00;99.90;;;;;;4847230;29;38152;-78
2022/01/20 10:17:31;;;;;;;18.93;2.73;;;7.00;99.90;;;;;;4849794;29;40639;-79
2022/01/20 10:20:04;;;;;;;12.30;2.90;;;6.50;99.90;;;;;;4848402;29;39784;-79
2022/01/20 10:22:33;;;;;;;20.83;2.83;;;6.00;99.90;;;;;;4844281;29;47230;-81
2022/01/20 10:25:09;;;;;;;25.50;2.80;;;5.80;99.90;;;;;;4843309;29;37006;-78
2022/01/20 10:27:53;;;;;;;20.77;3.40;;;5.70;99.90;;;;;;4841413;29;47354;-80
2022/01/20 10:30:25;;;;;;;25.20;3.50;;;5.60;99.90;;;;;;4839264;29;42388;-78
2022/01/20 10:32:55;;;;;;;27.63;3.15;;;5.60;99.90;;;;;;4845990;29;38459;-78
2022/01/20 10:35:35;;;;;;;18.27;2.60;;;5.70;99.90;;;;;;4843103;29;37733;-78
2022/01/20 10:38:12;;;;;;;20.23;4.63;;;5.80;99.90;;;;;;4858287;29;39583;-78
2022/01/20 10:40:54;;;;;;;14.10;2.50;;;5.90;99.90;;;;;;4842811;29;48207;-78
2022/01/20 10:43:25;;;;;;;17.23;3.10;;;6.10;99.90;;;;;;4850862;29;37890;-78
2022/01/20 10:46:11;;;;;;;22.67;3.30;;;6.50;99.90;;;;;;4846175;29;37527;-79
2022/01/20 10:48:38;;;;;;;14.03;2.50;;;6.80;99.90;;;;;;4851828;29;48738;-79
2022/01/20 10:51:21;;;;;;;16.87;2.50;;;6.90;99.90;;;;;;4849765;29;39132;-78
2022/01/20 10:54:02;;;;;;;19.17;2.40;;;6.70;99.90;;;;;;4847777;29;38846;-79
2022/01/20 10:56:28;;;;;;;21.40;2.47;;;6.60;99.90;;;;;;4839989;29;48462;-78
2022/01/20 10:59:05;;;;;;;20.80;3.03;;;6.50;99.90;;;;;;4843156;29;39801;-78
2022/01/20 11:01:31;;;;;;;11.87;2.17;;;6.30;99.90;;;;;;4843722;29;47290;-79
2022/01/20 11:03:58;;;;;;;19.87;2.93;;;6.30;99.90;;;;;;4853304;29;38978;-78
2022/01/20 11:06:24;;;;;;;15.70;2.33;;;6.30;99.90;;;;;;4843600;29;38622;-78
2022/01/20 11:08:51;;;;;;;11.80;2.03;;;6.50;99.90;;;;;;4849309;29;38369;-78
2022/01/20 11:11:18;;;;;;;12.50;2.20;;;6.70;99.90;;;;;;4851135;29;37970;-78
2022/01/20 11:13:46;;;;;;;11.03;2.00;;;7.00;99.90;;;;;;4844812;29;38583;-78
2022/01/20 11:16:12;;;;;;;16.67;2.67;;;7.10;99.90;;;;;;4844472;29;37460;-78
2022/01/20 11:18:42;;;;;;;16.77;2.50;;;7.20;99.90;;;;;;4842409;29;39892;-79
2022/01/20 11:21:08;;;;;;;8.23;1.80;;;7.20;99.90;;;;;;4845294;29;39711;-77
2022/01/20 11:23:37;;;;;;;14.20;2.20;;;7.20;99.90;;;;;;4845370;29;41604;-79
2022/01/20 11:26:04;;;;;;;14.63;2.83;;;7.20;99.90;;;;;;4858314;29;37071;-78
2022/01/20 11:28:30;;;;;;;17.67;3.40;;;7.10;99.90;;;;;;4848192;29;38879;-78
2022/01/20 11:31:00;;;;;;;20.17;2.77;;;7.10;99.90;;;;;;4846023;29;39471;-78
2022/01/20 11:33:34;;;;;;;16.43;2.10;;;7.10;99.90;;;;;;4844580;29;41414;-77
2022/01/20 11:36:01;;;;;;;17.77;2.30;;;7.10;99.90;;;;;;4843638;29;37319;-78
2022/01/20 11:39:00;;;;;;;15.07;2.10;;;7.20;99.90;;;;;;4848778;29;46892;-77
2022/01/20 11:41:43;;;;;;;14.33;2.50;;;7.20;99.90;;;;;;4845826;29;38963;-78
2022/01/20 11:44:12;;;;;;;12.37;2.17;;;7.20;99.90;;;;;;4845630;29;39024;-79
2022/01/20 11:46:44;;;;;;;12.10;1.93;;;7.20;99.90;;;;;;4843712;29;37203;-78
2022/01/20 11:49:16;;;;;;;11.17;3.00;;;7.20;99.90;;;;;;4851781;29;39254;-79
2022/01/20 11:51:49;;;;;;;12.33;2.43;;;7.30;99.90;;;;;;4849027;28;38815;-80
2022/01/20 11:54:33;;;;;;;13.57;4.27;;;7.40;99.90;;;;;;4856802;29;37854;-78
2022/01/20 11:57:28;;;;;;;11.43;2.27;;;7.40;99.90;;;;;;4848561;29;37671;-80
2022/01/20 12:00:01;;;;;;;14.30;2.20;;;7.30;99.90;;;;;;4855623;29;47063;-79
2022/01/20 12:02:37;;;;;;;12.80;3.10;;;7.20;99.90;;;;;;4844454;29;48002;-80
2022/01/20 12:05:17;;;;;;;13.60;2.23;;;7.20;99.90;;;;;;4861465;29;40518;-79
2022/01/20 12:07:44;;;;;;;8.43;2.43;;;7.30;99.90;;;;;;4844758;29;49290;-79
2022/01/20 12:10:22;;;;;;;18.97;2.73;;;7.40;99.90;;;;;;4849632;29;39503;-77
2022/01/20 12:12:48;;;;;;;18.03;2.60;;;7.60;99.90;;;;;;4851798;29;37697;-80
2022/01/20 12:15:17;;;;;;;13.27;1.93;;;7.60;99.90;;;;;;4844878;29;38561;-79
2022/01/20 12:17:55;;;;;;;10.20;1.50;;;7.40;99.90;;;;;;4850926;29;38231;-80
2022/01/20 12:20:22;;;;;;;11.83;2.00;;;7.50;99.90;;;;;;4847425;29;38672;-80
2022/01/20 12:22:49;;;;;;;8.30;2.00;;;7.70;99.90;;;;;;4849087;29;39665;-80
2022/01/20 12:25:19;;;;;;;15.13;2.10;;;7.80;99.90;;;;;;4848328;29;38481;-80
2022/01/20 12:27:46;;;;;;;14.10;2.10;;;8.00;99.90;;;;;;4851519;29;37152;-79
2022/01/20 12:30:30;;;;;;;14.90;2.63;;;7.90;99.90;;;;;;4847555;29;39752;-79
2022/01/20 12:33:00;;;;;;;18.20;2.30;;;7.50;99.90;;;;;;4849296;29;37223;-80
2022/01/20 12:35:36;;;;;;;15.80;2.37;;;7.30;99.90;;;;;;4845221;29;41266;-79
2022/01/20 12:38:14;;;;;;;9.87;1.50;;;7.20;99.90;;;;;;4846899;29;36750;-78
2022/01/20 12:40:40;;;;;;;12.27;2.30;;;7.10;99.90;;;;;;4857099;29;39072;-79
2022/01/20 12:43:06;;;;;;;10.87;1.70;;;6.90;99.90;;;;;;4849186;29;38560;-79
2022/01/20 12:48:19;;;;;;;16.73;1.83;;;6.90;99.90;;;;;;4847321;29;38295;-77
2022/01/20 12:50:53;;;;;;;14.40;2.20;;;7.00;99.90;;;;;;4847692;29;40672;-78
2022/01/20 12:53:36;;;;;;;10.40;2.17;;;7.00;99.90;;;;;;4845164;28;41264;-79
2022/01/20 12:56:03;;;;;;;;;;;7.10;99.90;;;;;;4845388;29;37432;-79
2022/01/20 12:58:29;;;;;;;15.83;3.40;;;7.20;99.90;;;;;;4848763;29;37799;-81
2022/01/20 13:01:04;;;;;;;15.20;1.90;;;7.20;99.90;;;;;;4847253;29;39654;-78
2022/01/20 13:03:40;;;;;;;15.87;2.23;;;7.10;99.90;;;;;;4847724;29;49114;-77
2022/01/20 13:06:11;;;;;;;14.33;2.40;;;7.00;99.90;;;;;;4844942;29;39389;-78
2022/01/20 13:08:41;;;;;;;7.53;1.53;;;6.90;99.90;;;;;;4849745;29;38185;-78
2022/01/20 13:11:14;;;;;;;11.03;2.00;;;6.80;99.90;;;;;;4845150;29;38669;-77
2022/01/20 13:13:50;;;;;;;14.30;2.15;;;6.70;99.90;;;;;;4849680;29;39177;-77
2022/01/20 13:16:16;;;;;;;15.67;2.40;;;6.70;99.90;;;;;;4843722;29;38872;-77
2022/01/20 13:18:57;;;;;;;18.97;2.17;;;6.80;99.90;;;;;;4848594;29;36043;-78
2022/01/20 13:21:54;;;;;;;18.03;2.93;;;6.90;99.90;;;;;;4846736;29;38533;-77
2022/01/20 13:24:31;;;;;;;11.47;2.30;;;6.90;99.90;;;;;;4842900;29;38952;-78
2022/01/20 13:26:59;;;;;;;13.20;2.20;;;7.00;99.90;;;;;;4859981;29;41131;-77
2022/01/20 13:29:27;;;;;;;11.53;2.03;;;7.10;99.90;;;;;;4851516;29;38277;-79
2022/01/20 13:31:59;;;;;;;15.00;2.33;;;7.20;99.90;;;;;;4841368;29;38684;-79
2022/01/20 13:34:25;;;;;;;14.70;1.70;;;7.40;99.90;;;;;;4845575;29;39570;-79
2022/01/20 13:36:53;;;;;;;11.43;2.10;;;7.70;99.90;;;;;;4844919;29;38980;-80
2022/01/20 13:39:28;;;;;;;14.27;2.83;;;7.60;99.90;;;;;;4855645;29;37375;-79
2022/01/20 13:45:15;;;;;;;12.27;2.17;;;7.00;99.90;;;;;;4842990;29;49296;-80
2022/01/20 13:47:50;;;;;;;9.33;1.87;;;6.80;99.90;;;;;;4843163;29;47291;-80
2022/01/20 13:50:20;;;;;;;15.07;2.17;;;6.80;99.90;;;;;;4847661;29;37861;-77
2022/01/20 13:52:46;;;;;;;12.67;2.23;;;6.80;99.90;;;;;;4845733;29;39326;-79
2022/01/20 13:55:28;;;;;;;14.73;2.00;;;6.80;99.90;;;;;;4847909;29;38833;-77
2022/01/20 13:57:56;;;;;;;12.60;2.03;;;6.80;99.90;;;;;;4845154;29;39276;-78
2022/01/20 14:00:25;;;;;;;9.47;1.90;;;6.70;99.90;;;;;;4833756;29;38579;-78
2022/01/20 14:02:51;;;;;;;9.10;2.13;;;6.80;99.90;;;;;;4846722;29;40705;-78
2022/01/20 14:05:20;;;;;;;8.60;1.20;;;6.80;99.90;;;;;;4846251;29;39541;-78
2022/01/20 14:07:47;;;;;;;10.23;1.30;;;6.80;99.90;;;;;;4843010;29;39919;-79